sensor_id;sensor_type;location;lat;lon;timestamp;P1;durP1;ratioP1;P2;durP2;ratioP2
85279;SDS011;75687;40.670;21.838;2024-01-16T00:01:29;6.50;;;4.10;;
85279;SDS011;75687;40.670;21.838;2024-01-16T00:04:00;7.40;;;3.90;;
85279;SDS011;75687;40.670;21.838;2024-01-16T00:06:30;10.40;;;6.20;;
85279;SDS011;75687;40.670;21.838;2024-01-16T00:09:01;13.20;;;6.90;;
85279;SDS011;75687;40.670;21.838;2024-01-16T00:11:31;8.60;;;4.90;;
85279;SDS011;75687;40.670;21.838;2024-01-16T00:14:02;8.40;;;5.10;;
85279;SDS011;75687;40.670;21.838;2024-01-16T00:16:33;7.70;;;4.60;;
85279;SDS011;75687;40.670;21.838;2024-01-16T00:19:06;8.80;;;5.20;;
85279;SDS011;75687;40.670;21.838;2024-01-16T00:21:39;7.40;;;4.10;;
85279;SDS011;75687;40.670;21.838;2024-01-16T00:24:09;8.20;;;4.80;;
85279;SDS011;75687;40.670;21.838;2024-01-16T00:26:40;5.80;;;3.80;;
85279;SDS011;75687;40.670;21.838;2024-01-16T00:29:10;7.30;;;4.40;;
85279;SDS011;75687;40.670;21.838;2024-01-16T00:31:41;7.60;;;4.30;;
85279;SDS011;75687;40.670;21.838;2024-01-16T00:34:12;7.80;;;3.60;;
85279;SDS011;75687;40.670;21.838;2024-01-16T00:36:42;4.50;;;3.50;;
85279;SDS011;75687;40.670;21.838;2024-01-16T00:39:13;8.90;;;4.90;;
85279;SDS011;75687;40.670;21.838;2024-01-16T00:41:43;12.30;;;5.90;;
85279;SDS011;75687;40.670;21.838;2024-01-16T00:44:14;4.40;;;2.50;;
85279;SDS011;75687;40.670;21.838;2024-01-16T00:46:45;8.20;;;3.50;;
85279;SDS011;75687;40.670;21.838;2024-01-16T00:49:15;4.10;;;2.70;;
85279;SDS011;75687;40.670;21.838;2024-01-16T00:51:48;3.30;;;2.10;;
85279;SDS011;75687;40.670;21.838;2024-01-16T00:54:18;3.80;;;2.40;;
85279;SDS011;75687;40.670;21.838;2024-01-16T00:56:49;8.30;;;5.00;;
85279;SDS011;75687;40.670;21.838;2024-01-16T00:59:23;7.20;;;4.10;;
85279;SDS011;75687;40.670;21.838;2024-01-16T01:01:54;7.10;;;3.80;;
85279;SDS011;75687;40.670;21.838;2024-01-16T01:04:26;7.90;;;4.50;;
85279;SDS011;75687;40.670;21.838;2024-01-16T01:06:56;5.80;;;3.80;;
85279;SDS011;75687;40.670;21.838;2024-01-16T01:09:27;5.60;;;3.60;;
85279;SDS011;75687;40.670;21.838;2024-01-16T01:11:57;7.30;;;3.70;;
85279;SDS011;75687;40.670;21.838;2024-01-16T01:14:28;17.60;;;8.70;;
85279;SDS011;75687;40.670;21.838;2024-01-16T01:16:59;8.90;;;6.50;;
85279;SDS011;75687;40.670;21.838;2024-01-16T01:19:30;7.10;;;4.40;;
85279;SDS011;75687;40.670;21.838;2024-01-16T01:22:01;8.70;;;3.90;;
85279;SDS011;75687;40.670;21.838;2024-01-16T01:24:31;8.00;;;4.30;;
85279;SDS011;75687;40.670;21.838;2024-01-16T01:27:02;6.70;;;4.20;;
85279;SDS011;75687;40.670;21.838;2024-01-16T01:29:34;6.60;;;3.90;;
85279;SDS011;75687;40.670;21.838;2024-01-16T01:32:04;6.50;;;2.90;;
85279;SDS011;75687;40.670;21.838;2024-01-16T01:34:35;4.30;;;2.60;;
85279;SDS011;75687;40.670;21.838;2024-01-16T01:37:06;3.90;;;2.90;;
85279;SDS011;75687;40.670;21.838;2024-01-16T01:39:37;1.90;;;1.60;;
85279;SDS011;75687;40.670;21.838;2024-01-16T01:42:07;7.80;;;4.40;;
85279;SDS011;75687;40.670;21.838;2024-01-16T01:44:38;7.60;;;4.20;;
85279;SDS011;75687;40.670;21.838;2024-01-16T01:47:10;9.70;;;4.00;;
85279;SDS011;75687;40.670;21.838;2024-01-16T01:49:40;7.60;;;3.80;;
85279;SDS011;75687;40.670;21.838;2024-01-16T01:52:13;6.80;;;4.00;;
85279;SDS011;75687;40.670;21.838;2024-01-16T01:54:44;8.80;;;4.30;;
85279;SDS011;75687;40.670;21.838;2024-01-16T01:57:15;7.60;;;5.00;;
85279;SDS011;75687;40.670;21.838;2024-01-16T01:59:46;6.70;;;3.60;;
85279;SDS011;75687;40.670;21.838;2024-01-16T02:02:18;6.40;;;3.80;;
85279;SDS011;75687;40.670;21.838;2024-01-16T02:04:50;7.90;;;4.20;;
85279;SDS011;75687;40.670;21.838;2024-01-16T02:07:21;4.90;;;4.00;;
85279;SDS011;75687;40.670;21.838;2024-01-16T02:09:51;5.80;;;3.10;;
85279;SDS011;75687;40.670;21.838;2024-01-16T02:12:23;3.20;;;2.20;;
85279;SDS011;75687;40.670;21.838;2024-01-16T02:14:53;3.10;;;1.90;;
85279;SDS011;75687;40.670;21.838;2024-01-16T02:17:24;8.50;;;3.80;;
85279;SDS011;75687;40.670;21.838;2024-01-16T02:19:55;3.00;;;2.70;;
85279;SDS011;75687;40.670;21.838;2024-01-16T02:22:26;1.80;;;1.40;;
85279;SDS011;75687;40.670;21.838;2024-01-16T02:24:58;2.30;;;1.50;;
85279;SDS011;75687;40.670;21.838;2024-01-16T02:27:29;10.50;;;4.80;;
85279;SDS011;75687;40.670;21.838;2024-01-16T02:29:59;13.90;;;6.80;;
85279;SDS011;75687;40.670;21.838;2024-01-16T02:32:30;7.60;;;5.10;;
85279;SDS011;75687;40.670;21.838;2024-01-16T02:35:01;9.40;;;4.90;;
85279;SDS011;75687;40.670;21.838;2024-01-16T02:37:33;6.00;;;3.50;;
85279;SDS011;75687;40.670;21.838;2024-01-16T02:40:04;7.30;;;3.90;;
85279;SDS011;75687;40.670;21.838;2024-01-16T02:42:37;4.70;;;3.40;;
85279;SDS011;75687;40.670;21.838;2024-01-16T02:45:09;5.70;;;3.40;;
85279;SDS011;75687;40.670;21.838;2024-01-16T02:47:39;6.50;;;3.40;;
85279;SDS011;75687;40.670;21.838;2024-01-16T02:50:10;2.50;;;1.50;;
85279;SDS011;75687;40.670;21.838;2024-01-16T02:52:41;1.70;;;1.10;;
85279;SDS011;75687;40.670;21.838;2024-01-16T02:55:11;1.90;;;1.00;;
85279;SDS011;75687;40.670;21.838;2024-01-16T02:57:42;1.00;;;1.00;;
85279;SDS011;75687;40.670;21.838;2024-01-16T03:00:14;3.20;;;1.70;;
85279;SDS011;75687;40.670;21.838;2024-01-16T03:02:45;1.50;;;1.00;;
85279;SDS011;75687;40.670;21.838;2024-01-16T03:05:16;1.20;;;1.00;;
85279;SDS011;75687;40.670;21.838;2024-01-16T03:07:47;1.50;;;1.20;;
85279;SDS011;75687;40.670;21.838;2024-01-16T03:10:17;1.70;;;1.00;;
85279;SDS011;75687;40.670;21.838;2024-01-16T03:12:48;1.70;;;1.00;;
85279;SDS011;75687;40.670;21.838;2024-01-16T03:15:18;2.70;;;0.90;;
85279;SDS011;75687;40.670;21.838;2024-01-16T03:17:49;1.10;;;1.00;;
85279;SDS011;75687;40.670;21.838;2024-01-16T03:20:19;1.50;;;1.10;;
85279;SDS011;75687;40.670;21.838;2024-01-16T03:22:51;1.70;;;1.00;;
85279;SDS011;75687;40.670;21.838;2024-01-16T03:25:21;1.00;;;0.80;;
85279;SDS011;75687;40.670;21.838;2024-01-16T03:27:52;1.70;;;0.90;;
85279;SDS011;75687;40.670;21.838;2024-01-16T03:30:22;3.90;;;1.10;;
85279;SDS011;75687;40.670;21.838;2024-01-16T03:32:53;5.80;;;2.80;;
85279;SDS011;75687;40.670;21.838;2024-01-16T03:35:23;4.10;;;3.00;;
85279;SDS011;75687;40.670;21.838;2024-01-16T03:37:54;3.00;;;2.50;;
85279;SDS011;75687;40.670;21.838;2024-01-16T03:40:25;3.60;;;1.90;;
85279;SDS011;75687;40.670;21.838;2024-01-16T03:42:55;6.10;;;3.20;;
85279;SDS011;75687;40.670;21.838;2024-01-16T03:45:26;1.60;;;1.30;;
85279;SDS011;75687;40.670;21.838;2024-01-16T03:47:57;1.30;;;1.00;;
85279;SDS011;75687;40.670;21.838;2024-01-16T03:50:27;2.20;;;1.00;;
85279;SDS011;75687;40.670;21.838;2024-01-16T03:52:59;2.90;;;1.20;;
85279;SDS011;75687;40.670;21.838;2024-01-16T03:55:29;2.90;;;1.10;;
85279;SDS011;75687;40.670;21.838;2024-01-16T03:58:00;1.00;;;0.90;;
85279;SDS011;75687;40.670;21.838;2024-01-16T04:00:31;5.40;;;1.50;;
85279;SDS011;75687;40.670;21.838;2024-01-16T04:03:02;1.40;;;0.70;;
85279;SDS011;75687;40.670;21.838;2024-01-16T04:05:33;1.30;;;1.00;;
85279;SDS011;75687;40.670;21.838;2024-01-16T04:08:04;1.30;;;1.00;;
85279;SDS011;75687;40.670;21.838;2024-01-16T04:10:35;2.50;;;1.10;;
85279;SDS011;75687;40.670;21.838;2024-01-16T04:13:05;1.20;;;1.10;;
85279;SDS011;75687;40.670;21.838;2024-01-16T04:15:38;2.20;;;1.10;;
85279;SDS011;75687;40.670;21.838;2024-01-16T04:18:09;1.80;;;1.30;;
85279;SDS011;75687;40.670;21.838;2024-01-16T04:20:39;1.20;;;1.10;;
85279;SDS011;75687;40.670;21.838;2024-01-16T04:23:10;0.90;;;0.80;;
85279;SDS011;75687;40.670;21.838;2024-01-16T04:25:40;1.50;;;1.00;;
85279;SDS011;75687;40.670;21.838;2024-01-16T04:28:11;1.50;;;1.30;;
85279;SDS011;75687;40.670;21.838;2024-01-16T04:30:42;3.60;;;1.40;;
85279;SDS011;75687;40.670;21.838;2024-01-16T04:33:12;1.50;;;0.90;;
85279;SDS011;75687;40.670;21.838;2024-01-16T04:35:43;2.00;;;1.20;;
85279;SDS011;75687;40.670;21.838;2024-01-16T04:38:13;1.10;;;0.90;;
85279;SDS011;75687;40.670;21.838;2024-01-16T04:40:44;1.10;;;0.90;;
85279;SDS011;75687;40.670;21.838;2024-01-16T04:43:14;1.60;;;1.50;;
85279;SDS011;75687;40.670;21.838;2024-01-16T04:45:45;1.30;;;1.20;;
85279;SDS011;75687;40.670;21.838;2024-01-16T04:48:15;1.20;;;1.00;;
85279;SDS011;75687;40.670;21.838;2024-01-16T04:50:46;1.40;;;1.00;;
85279;SDS011;75687;40.670;21.838;2024-01-16T04:53:17;4.20;;;1.70;;
85279;SDS011;75687;40.670;21.838;2024-01-16T04:55:48;1.80;;;1.10;;
85279;SDS011;75687;40.670;21.838;2024-01-16T04:58:18;3.50;;;1.40;;
85279;SDS011;75687;40.670;21.838;2024-01-16T05:00:49;2.30;;;0.80;;
85279;SDS011;75687;40.670;21.838;2024-01-16T05:03:20;1.30;;;0.80;;
85279;SDS011;75687;40.670;21.838;2024-01-16T05:05:50;1.10;;;0.90;;
85279;SDS011;75687;40.670;21.838;2024-01-16T05:08:21;2.70;;;1.00;;
85279;SDS011;75687;40.670;21.838;2024-01-16T05:10:52;1.00;;;0.80;;
85279;SDS011;75687;40.670;21.838;2024-01-16T05:13:25;2.40;;;1.20;;
85279;SDS011;75687;40.670;21.838;2024-01-16T05:15:56;1.50;;;0.90;;
85279;SDS011;75687;40.670;21.838;2024-01-16T05:18:26;2.00;;;1.50;;
85279;SDS011;75687;40.670;21.838;2024-01-16T05:20:57;1.30;;;1.20;;
85279;SDS011;75687;40.670;21.838;2024-01-16T05:23:28;2.90;;;1.10;;
85279;SDS011;75687;40.670;21.838;2024-01-16T05:25:58;1.10;;;1.00;;
85279;SDS011;75687;40.670;21.838;2024-01-16T05:28:29;0.80;;;0.70;;
85279;SDS011;75687;40.670;21.838;2024-01-16T05:31:00;1.70;;;1.60;;
85279;SDS011;75687;40.670;21.838;2024-01-16T05:33:30;3.00;;;1.70;;
85279;SDS011;75687;40.670;21.838;2024-01-16T05:36:01;5.10;;;1.50;;
85279;SDS011;75687;40.670;21.838;2024-01-16T05:38:32;1.20;;;1.10;;
85279;SDS011;75687;40.670;21.838;2024-01-16T05:41:03;0.90;;;0.90;;
85279;SDS011;75687;40.670;21.838;2024-01-16T05:43:34;1.20;;;0.90;;
85279;SDS011;75687;40.670;21.838;2024-01-16T05:46:05;1.60;;;1.00;;
85279;SDS011;75687;40.670;21.838;2024-01-16T05:48:36;1.50;;;1.10;;
85279;SDS011;75687;40.670;21.838;2024-01-16T05:51:07;1.50;;;1.30;;
85279;SDS011;75687;40.670;21.838;2024-01-16T05:53:38;1.60;;;0.90;;
85279;SDS011;75687;40.670;21.838;2024-01-16T05:56:08;1.80;;;1.20;;
85279;SDS011;75687;40.670;21.838;2024-01-16T05:58:39;1.30;;;1.00;;
85279;SDS011;75687;40.670;21.838;2024-01-16T06:01:10;2.20;;;1.10;;
85279;SDS011;75687;40.670;21.838;2024-01-16T06:03:41;1.10;;;1.00;;
85279;SDS011;75687;40.670;21.838;2024-01-16T06:06:14;1.50;;;1.20;;
85279;SDS011;75687;40.670;21.838;2024-01-16T06:08:45;2.30;;;2.10;;
85279;SDS011;75687;40.670;21.838;2024-01-16T06:11:15;3.20;;;1.60;;
85279;SDS011;75687;40.670;21.838;2024-01-16T06:13:49;2.00;;;1.20;;
85279;SDS011;75687;40.670;21.838;2024-01-16T06:16:20;1.30;;;1.00;;
85279;SDS011;75687;40.670;21.838;2024-01-16T06:18:51;2.00;;;0.80;;
85279;SDS011;75687;40.670;21.838;2024-01-16T06:21:21;2.80;;;0.90;;
85279;SDS011;75687;40.670;21.838;2024-01-16T06:23:52;1.40;;;1.00;;
85279;SDS011;75687;40.670;21.838;2024-01-16T06:26:23;2.40;;;1.20;;
85279;SDS011;75687;40.670;21.838;2024-01-16T06:28:53;1.20;;;1.10;;
85279;SDS011;75687;40.670;21.838;2024-01-16T06:31:24;2.10;;;0.90;;
85279;SDS011;75687;40.670;21.838;2024-01-16T06:33:55;1.50;;;1.00;;
85279;SDS011;75687;40.670;21.838;2024-01-16T06:36:25;1.90;;;1.10;;
85279;SDS011;75687;40.670;21.838;2024-01-16T06:38:56;2.00;;;1.20;;
85279;SDS011;75687;40.670;21.838;2024-01-16T06:41:26;1.70;;;1.20;;
85279;SDS011;75687;40.670;21.838;2024-01-16T06:43:57;1.50;;;1.10;;
85279;SDS011;75687;40.670;21.838;2024-01-16T06:46:27;2.70;;;1.40;;
85279;SDS011;75687;40.670;21.838;2024-01-16T06:48:58;3.10;;;1.40;;
85279;SDS011;75687;40.670;21.838;2024-01-16T06:51:28;1.60;;;1.20;;
85279;SDS011;75687;40.670;21.838;2024-01-16T06:53:59;2.90;;;1.40;;
85279;SDS011;75687;40.670;21.838;2024-01-16T06:56:29;3.90;;;1.40;;
85279;SDS011;75687;40.670;21.838;2024-01-16T06:59:00;2.60;;;1.90;;
85279;SDS011;75687;40.670;21.838;2024-01-16T07:01:30;1.60;;;1.00;;
85279;SDS011;75687;40.670;21.838;2024-01-16T07:04:01;1.50;;;1.10;;
85279;SDS011;75687;40.670;21.838;2024-01-16T07:06:31;1.40;;;0.80;;
85279;SDS011;75687;40.670;21.838;2024-01-16T07:09:02;1.70;;;1.20;;
85279;SDS011;75687;40.670;21.838;2024-01-16T07:11:34;5.50;;;1.20;;
85279;SDS011;75687;40.670;21.838;2024-01-16T07:14:06;1.40;;;1.00;;
85279;SDS011;75687;40.670;21.838;2024-01-16T07:16:37;1.20;;;1.10;;
85279;SDS011;75687;40.670;21.838;2024-01-16T07:19:08;1.40;;;1.10;;
85279;SDS011;75687;40.670;21.838;2024-01-16T07:21:40;3.80;;;1.20;;
85279;SDS011;75687;40.670;21.838;2024-01-16T07:24:12;2.30;;;1.10;;
85279;SDS011;75687;40.670;21.838;2024-01-16T07:26:43;1.40;;;1.30;;
85279;SDS011;75687;40.670;21.838;2024-01-16T07:29:13;1.60;;;1.10;;
85279;SDS011;75687;40.670;21.838;2024-01-16T07:31:44;2.10;;;1.10;;
85279;SDS011;75687;40.670;21.838;2024-01-16T07:34:15;1.60;;;1.20;;
85279;SDS011;75687;40.670;21.838;2024-01-16T07:36:49;6.30;;;1.30;;
85279;SDS011;75687;40.670;21.838;2024-01-16T07:39:20;1.30;;;1.00;;
85279;SDS011;75687;40.670;21.838;2024-01-16T07:41:52;1.70;;;1.20;;
85279;SDS011;75687;40.670;21.838;2024-01-16T07:44:22;1.10;;;1.00;;
85279;SDS011;75687;40.670;21.838;2024-01-16T07:46:53;1.50;;;1.00;;
85279;SDS011;75687;40.670;21.838;2024-01-16T07:49:23;0.90;;;0.80;;
85279;SDS011;75687;40.670;21.838;2024-01-16T07:51:54;2.40;;;1.30;;
85279;SDS011;75687;40.670;21.838;2024-01-16T07:54:25;3.50;;;1.50;;
85279;SDS011;75687;40.670;21.838;2024-01-16T07:56:55;2.90;;;1.10;;
85279;SDS011;75687;40.670;21.838;2024-01-16T07:59:27;2.40;;;1.10;;
85279;SDS011;75687;40.670;21.838;2024-01-16T08:01:57;1.50;;;1.30;;
85279;SDS011;75687;40.670;21.838;2024-01-16T08:04:31;1.10;;;1.00;;
85279;SDS011;75687;40.670;21.838;2024-01-16T08:07:08;2.60;;;2.10;;
85279;SDS011;75687;40.670;21.838;2024-01-16T08:09:38;2.10;;;1.20;;
85279;SDS011;75687;40.670;21.838;2024-01-16T08:12:09;2.00;;;1.10;;
85279;SDS011;75687;40.670;21.838;2024-01-16T08:14:40;3.40;;;1.20;;
85279;SDS011;75687;40.670;21.838;2024-01-16T08:17:12;3.10;;;1.60;;
85279;SDS011;75687;40.670;21.838;2024-01-16T08:19:43;2.20;;;1.50;;
85279;SDS011;75687;40.670;21.838;2024-01-16T08:22:13;1.40;;;1.10;;
85279;SDS011;75687;40.670;21.838;2024-01-16T08:24:44;1.60;;;1.40;;
85279;SDS011;75687;40.670;21.838;2024-01-16T08:27:14;2.10;;;1.30;;
85279;SDS011;75687;40.670;21.838;2024-01-16T08:29:45;2.20;;;0.80;;
85279;SDS011;75687;40.670;21.838;2024-01-16T08:32:17;2.20;;;0.90;;
85279;SDS011;75687;40.670;21.838;2024-01-16T08:34:48;1.20;;;1.10;;
85279;SDS011;75687;40.670;21.838;2024-01-16T08:37:19;1.10;;;1.00;;
85279;SDS011;75687;40.670;21.838;2024-01-16T08:39:51;1.60;;;1.00;;
85279;SDS011;75687;40.670;21.838;2024-01-16T08:42:22;3.10;;;1.20;;
85279;SDS011;75687;40.670;21.838;2024-01-16T08:44:52;1.40;;;1.00;;
85279;SDS011;75687;40.670;21.838;2024-01-16T08:47:24;1.90;;;1.00;;
85279;SDS011;75687;40.670;21.838;2024-01-16T08:49:55;1.90;;;1.20;;
85279;SDS011;75687;40.670;21.838;2024-01-16T08:52:25;2.50;;;2.00;;
85279;SDS011;75687;40.670;21.838;2024-01-16T08:54:56;5.00;;;3.30;;
85279;SDS011;75687;40.670;21.838;2024-01-16T08:57:27;2.00;;;1.20;;
85279;SDS011;75687;40.670;21.838;2024-01-16T08:59:58;2.00;;;1.20;;
85279;SDS011;75687;40.670;21.838;2024-01-16T09:02:29;5.60;;;2.40;;
85279;SDS011;75687;40.670;21.838;2024-01-16T09:04:59;2.70;;;2.10;;
85279;SDS011;75687;40.670;21.838;2024-01-16T09:07:30;5.50;;;1.60;;
85279;SDS011;75687;40.670;21.838;2024-01-16T09:10:01;2.50;;;1.30;;
85279;SDS011;75687;40.670;21.838;2024-01-16T09:12:33;3.00;;;2.40;;
85279;SDS011;75687;40.670;21.838;2024-01-16T09:15:09;1.90;;;1.40;;
85279;SDS011;75687;40.670;21.838;2024-01-16T09:17:40;2.70;;;1.60;;
85279;SDS011;75687;40.670;21.838;2024-01-16T09:20:11;2.70;;;1.60;;
85279;SDS011;75687;40.670;21.838;2024-01-16T09:22:42;3.20;;;1.70;;
85279;SDS011;75687;40.670;21.838;2024-01-16T09:25:13;4.10;;;2.20;;
85279;SDS011;75687;40.670;21.838;2024-01-16T09:27:45;4.60;;;2.00;;
85279;SDS011;75687;40.670;21.838;2024-01-16T09:30:16;3.90;;;2.20;;
85279;SDS011;75687;40.670;21.838;2024-01-16T09:32:47;6.00;;;2.40;;
85279;SDS011;75687;40.670;21.838;2024-01-16T09:35:18;2.20;;;1.40;;
85279;SDS011;75687;40.670;21.838;2024-01-16T09:37:48;5.80;;;2.20;;
85279;SDS011;75687;40.670;21.838;2024-01-16T09:40:19;4.60;;;2.00;;
85279;SDS011;75687;40.670;21.838;2024-01-16T09:42:50;3.80;;;2.10;;
85279;SDS011;75687;40.670;21.838;2024-01-16T09:45:21;3.90;;;1.80;;
85279;SDS011;75687;40.670;21.838;2024-01-16T09:47:52;3.10;;;1.80;;
85279;SDS011;75687;40.670;21.838;2024-01-16T09:50:23;2.00;;;1.40;;
85279;SDS011;75687;40.670;21.838;2024-01-16T09:52:53;3.20;;;1.40;;
85279;SDS011;75687;40.670;21.838;2024-01-16T09:55:26;2.30;;;1.80;;
85279;SDS011;75687;40.670;21.838;2024-01-16T09:57:56;2.10;;;1.20;;
85279;SDS011;75687;40.670;21.838;2024-01-16T10:00:27;1.30;;;1.00;;
85279;SDS011;75687;40.670;21.838;2024-01-16T10:02:58;2.20;;;1.50;;
85279;SDS011;75687;40.670;21.838;2024-01-16T10:05:30;2.40;;;1.40;;
85279;SDS011;75687;40.670;21.838;2024-01-16T10:08:04;2.80;;;1.50;;
85279;SDS011;75687;40.670;21.838;2024-01-16T10:10:36;2.90;;;1.40;;
85279;SDS011;75687;40.670;21.838;2024-01-16T10:13:14;2.60;;;1.80;;
85279;SDS011;75687;40.670;21.838;2024-01-16T10:15:45;3.60;;;2.00;;
85279;SDS011;75687;40.670;21.838;2024-01-16T10:20:54;1.30;;;1.20;;
85279;SDS011;75687;40.670;21.838;2024-01-16T10:23:24;2.40;;;1.50;;
85279;SDS011;75687;40.670;21.838;2024-01-16T10:26:06;1.80;;;1.50;;
85279;SDS011;75687;40.670;21.838;2024-01-16T10:28:36;3.10;;;1.40;;
85279;SDS011;75687;40.670;21.838;2024-01-16T10:31:08;2.30;;;1.00;;
85279;SDS011;75687;40.670;21.838;2024-01-16T10:33:39;1.10;;;0.90;;
85279;SDS011;75687;40.670;21.838;2024-01-16T10:36:10;3.10;;;1.60;;
85279;SDS011;75687;40.670;21.838;2024-01-16T10:38:42;1.50;;;1.00;;
85279;SDS011;75687;40.670;21.838;2024-01-16T10:41:13;1.60;;;1.10;;
85279;SDS011;75687;40.670;21.838;2024-01-16T10:43:46;2.70;;;1.60;;
85279;SDS011;75687;40.670;21.838;2024-01-16T10:46:17;4.10;;;2.40;;
85279;SDS011;75687;40.670;21.838;2024-01-16T10:48:59;3.90;;;2.50;;
85279;SDS011;75687;40.670;21.838;2024-01-16T10:51:30;2.50;;;1.30;;
85279;SDS011;75687;40.670;21.838;2024-01-16T10:54:02;2.30;;;1.30;;
85279;SDS011;75687;40.670;21.838;2024-01-16T10:56:34;5.10;;;2.90;;
85279;SDS011;75687;40.670;21.838;2024-01-16T10:59:06;16.40;;;7.70;;
85279;SDS011;75687;40.670;21.838;2024-01-16T11:01:41;4.90;;;1.80;;
85279;SDS011;75687;40.670;21.838;2024-01-16T11:04:14;3.60;;;1.80;;
85279;SDS011;75687;40.670;21.838;2024-01-16T11:06:46;4.10;;;1.50;;
85279;SDS011;75687;40.670;21.838;2024-01-16T11:09:20;3.90;;;1.60;;
85279;SDS011;75687;40.670;21.838;2024-01-16T11:11:50;2.50;;;1.80;;
85279;SDS011;75687;40.670;21.838;2024-01-16T11:14:25;5.10;;;3.40;;
85279;SDS011;75687;40.670;21.838;2024-01-16T11:17:00;10.40;;;3.40;;
85279;SDS011;75687;40.670;21.838;2024-01-16T11:19:32;7.20;;;3.00;;
85279;SDS011;75687;40.670;21.838;2024-01-16T11:22:10;4.10;;;3.00;;
85279;SDS011;75687;40.670;21.838;2024-01-16T11:24:41;5.80;;;3.10;;
85279;SDS011;75687;40.670;21.838;2024-01-16T11:27:21;5.70;;;4.20;;
85279;SDS011;75687;40.670;21.838;2024-01-16T11:29:52;6.90;;;4.90;;
85279;SDS011;75687;40.670;21.838;2024-01-16T11:32:33;6.90;;;4.20;;
85279;SDS011;75687;40.670;21.838;2024-01-16T11:35:07;6.20;;;4.30;;
85279;SDS011;75687;40.670;21.838;2024-01-16T11:37:38;5.70;;;3.80;;
85279;SDS011;75687;40.670;21.838;2024-01-16T11:40:27;6.50;;;4.70;;
85279;SDS011;75687;40.670;21.838;2024-01-16T11:46:05;7.60;;;5.10;;
85279;SDS011;75687;40.670;21.838;2024-01-16T11:48:36;6.70;;;4.20;;
85279;SDS011;75687;40.670;21.838;2024-01-16T11:53:54;7.70;;;5.10;;
85279;SDS011;75687;40.670;21.838;2024-01-16T11:56:46;6.80;;;5.20;;
85279;SDS011;75687;40.670;21.838;2024-01-16T11:59:59;7.50;;;4.70;;
85279;SDS011;75687;40.670;21.838;2024-01-16T12:02:41;8.10;;;5.90;;
85279;SDS011;75687;40.670;21.838;2024-01-16T12:05:23;5.40;;;4.40;;
85279;SDS011;75687;40.670;21.838;2024-01-16T12:07:54;8.30;;;5.40;;
85279;SDS011;75687;40.670;21.838;2024-01-16T12:10:25;8.00;;;5.00;;
85279;SDS011;75687;40.670;21.838;2024-01-16T12:12:57;6.70;;;4.40;;
85279;SDS011;75687;40.670;21.838;2024-01-16T12:15:30;8.80;;;5.20;;
85279;SDS011;75687;40.670;21.838;2024-01-16T12:18:05;8.10;;;4.40;;
85279;SDS011;75687;40.670;21.838;2024-01-16T12:20:43;6.40;;;4.20;;
85279;SDS011;75687;40.670;21.838;2024-01-16T12:23:14;5.30;;;4.30;;
85279;SDS011;75687;40.670;21.838;2024-01-16T12:25:45;7.70;;;4.60;;
85279;SDS011;75687;40.670;21.838;2024-01-16T12:28:26;6.60;;;4.30;;
85279;SDS011;75687;40.670;21.838;2024-01-16T12:31:00;5.60;;;4.60;;
85279;SDS011;75687;40.670;21.838;2024-01-16T12:33:31;7.00;;;4.70;;
85279;SDS011;75687;40.670;21.838;2024-01-16T12:36:02;5.60;;;4.20;;
85279;SDS011;75687;40.670;21.838;2024-01-16T12:38:34;5.10;;;3.50;;
85279;SDS011;75687;40.670;21.838;2024-01-16T12:41:06;7.80;;;3.80;;
85279;SDS011;75687;40.670;21.838;2024-01-16T12:43:39;6.60;;;3.50;;
85279;SDS011;75687;40.670;21.838;2024-01-16T12:46:12;5.90;;;3.80;;
85279;SDS011;75687;40.670;21.838;2024-01-16T12:48:42;6.80;;;4.40;;
85279;SDS011;75687;40.670;21.838;2024-01-16T12:53:51;10.00;;;4.30;;
85279;SDS011;75687;40.670;21.838;2024-01-16T12:56:21;6.00;;;4.70;;
85279;SDS011;75687;40.670;21.838;2024-01-16T12:59:08;6.20;;;3.80;;
85279;SDS011;75687;40.670;21.838;2024-01-16T13:01:40;6.00;;;4.30;;
85279;SDS011;75687;40.670;21.838;2024-01-16T13:04:12;6.50;;;4.40;;
85279;SDS011;75687;40.670;21.838;2024-01-16T13:06:47;6.40;;;3.70;;
85279;SDS011;75687;40.670;21.838;2024-01-16T13:09:17;6.50;;;4.30;;
85279;SDS011;75687;40.670;21.838;2024-01-16T13:11:54;6.40;;;4.30;;
85279;SDS011;75687;40.670;21.838;2024-01-16T13:14:26;6.80;;;4.90;;
85279;SDS011;75687;40.670;21.838;2024-01-16T13:16:58;7.70;;;5.00;;
85279;SDS011;75687;40.670;21.838;2024-01-16T13:19:31;6.00;;;3.80;;
85279;SDS011;75687;40.670;21.838;2024-01-16T13:22:01;8.80;;;4.90;;
85279;SDS011;75687;40.670;21.838;2024-01-16T13:24:32;5.00;;;3.70;;
85279;SDS011;75687;40.670;21.838;2024-01-16T13:27:04;5.00;;;3.40;;
85279;SDS011;75687;40.670;21.838;2024-01-16T13:29:37;5.90;;;3.50;;
85279;SDS011;75687;40.670;21.838;2024-01-16T13:32:08;7.30;;;4.30;;
85279;SDS011;75687;40.670;21.838;2024-01-16T13:34:39;5.00;;;3.20;;
85279;SDS011;75687;40.670;21.838;2024-01-16T13:37:14;5.20;;;3.60;;
85279;SDS011;75687;40.670;21.838;2024-01-16T13:39:50;5.20;;;3.50;;
85279;SDS011;75687;40.670;21.838;2024-01-16T13:42:21;8.00;;;3.60;;
85279;SDS011;75687;40.670;21.838;2024-01-16T13:44:51;5.40;;;3.80;;
85279;SDS011;75687;40.670;21.838;2024-01-16T13:47:22;4.10;;;3.10;;
85279;SDS011;75687;40.670;21.838;2024-01-16T13:49:52;8.30;;;5.20;;
85279;SDS011;75687;40.670;21.838;2024-01-16T13:52:23;6.00;;;4.40;;
85279;SDS011;75687;40.670;21.838;2024-01-16T13:54:55;8.30;;;4.10;;
85279;SDS011;75687;40.670;21.838;2024-01-16T13:57:26;5.50;;;3.80;;
85279;SDS011;75687;40.670;21.838;2024-01-16T13:59:56;8.30;;;4.90;;
85279;SDS011;75687;40.670;21.838;2024-01-16T14:02:27;9.40;;;5.80;;
85279;SDS011;75687;40.670;21.838;2024-01-16T14:04:58;7.90;;;5.00;;
85279;SDS011;75687;40.670;21.838;2024-01-16T14:07:29;7.90;;;4.60;;
85279;SDS011;75687;40.670;21.838;2024-01-16T14:10:00;8.50;;;4.20;;
85279;SDS011;75687;40.670;21.838;2024-01-16T14:12:32;7.40;;;6.20;;
85279;SDS011;75687;40.670;21.838;2024-01-16T14:15:05;11.60;;;6.80;;
85279;SDS011;75687;40.670;21.838;2024-01-16T14:17:44;8.40;;;5.60;;
85279;SDS011;75687;40.670;21.838;2024-01-16T14:20:15;5.50;;;4.30;;
85279;SDS011;75687;40.670;21.838;2024-01-16T14:22:50;8.00;;;4.20;;
85279;SDS011;75687;40.670;21.838;2024-01-16T14:25:21;8.50;;;4.60;;
85279;SDS011;75687;40.670;21.838;2024-01-16T14:27:59;5.30;;;3.40;;
85279;SDS011;75687;40.670;21.838;2024-01-16T14:30:32;5.60;;;3.90;;
85279;SDS011;75687;40.670;21.838;2024-01-16T14:33:03;5.30;;;3.90;;
85279;SDS011;75687;40.670;21.838;2024-01-16T14:35:35;5.50;;;4.20;;
85279;SDS011;75687;40.670;21.838;2024-01-16T14:38:06;5.10;;;4.30;;
85279;SDS011;75687;40.670;21.838;2024-01-16T14:40:36;5.60;;;3.90;;
85279;SDS011;75687;40.670;21.838;2024-01-16T14:43:07;6.80;;;3.90;;
85279;SDS011;75687;40.670;21.838;2024-01-16T14:45:38;6.20;;;3.80;;
85279;SDS011;75687;40.670;21.838;2024-01-16T14:48:08;7.40;;;3.80;;
85279;SDS011;75687;40.670;21.838;2024-01-16T14:50:39;6.60;;;4.00;;
85279;SDS011;75687;40.670;21.838;2024-01-16T14:53:11;6.40;;;3.10;;
85279;SDS011;75687;40.670;21.838;2024-01-16T14:55:41;6.10;;;4.00;;
85279;SDS011;75687;40.670;21.838;2024-01-16T14:58:12;5.70;;;4.20;;
85279;SDS011;75687;40.670;21.838;2024-01-16T15:00:42;7.30;;;4.20;;
85279;SDS011;75687;40.670;21.838;2024-01-16T15:03:13;9.30;;;4.90;;
85279;SDS011;75687;40.670;21.838;2024-01-16T15:05:47;10.10;;;5.90;;
85279;SDS011;75687;40.670;21.838;2024-01-16T15:08:17;8.80;;;5.30;;
85279;SDS011;75687;40.670;21.838;2024-01-16T15:10:48;8.20;;;4.70;;